Aeroporto :
LOGIN :

Iscrizione | Disclaimer

   EN    FR    IT 

 










Sommario :    VFR   VFR Marginale   IFR   IFR Intensivo   IFR Molto Intensivo
Visibilità : 
Base nubi : 
>= 8 km
>= 3000ft
5 / 8 km
1000 / 3000 ft
1500m / 5 km
500 / 1000 ft
800 / 1500m
200 / 500 ft
< 800m
< 200 ft
Simboli :   Temporali  Nebbia  Neve Forte  Precipitazioni Forti  Vento > 20 kt
SIGMETs :   Varie  Temporali  Ghiacco  Turbolenza  Onda orograficha  Ceneri Vulcaniche







- Altitudine del aeroporto : 353 ft
- Codice IATA : LIN


LIML - Milano Linate

ULTIMO METAR :
  • 201550Z 15008KT 120V180 CAVOK 22/05 Q1024 NOSIG

METARs OBSOLETI :
  • 201520Z 15007KT CAVOK 22/07 Q1024 NOSIG
  • 201450Z 14008KT 110V170 CAVOK 22/06 Q1025 NOSIG
  • 201420Z 17005KT 060V210 CAVOK 22/07 Q1025 NOSIG
  • 201350Z 13007KT 080V160 CAVOK 22/07 Q1025 NOSIG
  • 201320Z 16007KT 110V200 CAVOK 22/06 Q1026 NOSIG

TAF TAF LIML
Valido dal 20 a 12 ore il 21 a 12 ore UTC


201100Z 2012/2112 VRB05KT CAVOK
Nessun NOTAM noto per questo aeroporto.
1 SIGMET conosciuto per la FIR Milano (LIMM) :
 
Turbolenza severa
LIMM SIGMET 1 VALID 201330/201730 LIIP
LIMM MILANO FIR SEV TURB OBS E OF LINE N4618 E00855 - N4330 E01045 FL220/350 STNR NC=



MetMap, La meteo Aeronautica in un colpo d'occhio ! - Copyright ORBIFLY Dicembre 2007 - Disclaimer

ORBIFLY MET'MAP TEAM :

Programmazione e sviluppo : Alexandra Zaïnal
Concezione e sviluppo : Baudouin d'Aumeries
Co-Programmazione e sviluppo : Marc-Olivier Méhu
Supporto tecnico e logistico : Manuel Goepfert
Aiuto per la traduzione : Arnaldo La Scala

Contatto : metmap@orbifly.com




FONTI E CREDITI :

   NOAA